sensor_id;sensor_type;location;lat;lon;timestamp;P1;durP1;ratioP1;P2;durP2;ratioP2
26042;SDS011;13818;52.156;5.382;2023-06-14T00:01:09;4.60;;;2.00;;
26042;SDS011;13818;52.156;5.382;2023-06-14T00:06:05;3.80;;;1.90;;
26042;SDS011;13818;52.156;5.382;2023-06-14T00:08:31;4.97;;;2.10;;
26042;SDS011;13818;52.156;5.382;2023-06-14T00:10:58;5.65;;;2.28;;
26042;SDS011;13818;52.156;5.382;2023-06-14T00:13:26;6.60;;;2.25;;
26042;SDS011;13818;52.156;5.382;2023-06-14T00:15:53;4.85;;;2.38;;
26042;SDS011;13818;52.156;5.382;2023-06-14T00:18:20;7.40;;;2.10;;
26042;SDS011;13818;52.156;5.382;2023-06-14T00:20:49;5.82;;;2.00;;
26042;SDS011;13818;52.156;5.382;2023-06-14T00:23:16;7.05;;;1.85;;
26042;SDS011;13818;52.156;5.382;2023-06-14T00:25:42;2.88;;;1.73;;
26042;SDS011;13818;52.156;5.382;2023-06-14T00:28:09;3.55;;;2.03;;
26042;SDS011;13818;52.156;5.382;2023-06-14T00:30:36;6.43;;;2.45;;
26042;SDS011;13818;52.156;5.382;2023-06-14T00:33:03;7.20;;;2.33;;
26042;SDS011;13818;52.156;5.382;2023-06-14T00:35:30;4.82;;;1.90;;
26042;SDS011;13818;52.156;5.382;2023-06-14T00:37:56;5.47;;;1.85;;
26042;SDS011;13818;52.156;5.382;2023-06-14T00:40:23;5.57;;;2.08;;
26042;SDS011;13818;52.156;5.382;2023-06-14T00:42:50;3.85;;;1.95;;
26042;SDS011;13818;52.156;5.382;2023-06-14T00:45:16;8.48;;;2.50;;
26042;SDS011;13818;52.156;5.382;2023-06-14T00:47:44;10.13;;;2.33;;
26042;SDS011;13818;52.156;5.382;2023-06-14T00:52:39;9.52;;;2.30;;
26042;SDS011;13818;52.156;5.382;2023-06-14T00:55:06;4.07;;;2.00;;
26042;SDS011;13818;52.156;5.382;2023-06-14T00:57:33;6.15;;;2.67;;
26042;SDS011;13818;52.156;5.382;2023-06-14T01:00:03;3.67;;;1.98;;
26042;SDS011;13818;52.156;5.382;2023-06-14T01:02:34;3.65;;;2.05;;
26042;SDS011;13818;52.156;5.382;2023-06-14T01:05:03;5.22;;;1.95;;
26042;SDS011;13818;52.156;5.382;2023-06-14T01:07:33;4.95;;;1.65;;
26042;SDS011;13818;52.156;5.382;2023-06-14T01:10:12;7.03;;;2.40;;
26042;SDS011;13818;52.156;5.382;2023-06-14T01:12:51;2.83;;;1.60;;
26042;SDS011;13818;52.156;5.382;2023-06-14T01:15:25;6.95;;;2.13;;
26042;SDS011;13818;52.156;5.382;2023-06-14T01:17:53;6.87;;;2.73;;
26042;SDS011;13818;52.156;5.382;2023-06-14T01:20:27;5.03;;;1.83;;
26042;SDS011;13818;52.156;5.382;2023-06-14T01:22:56;8.18;;;2.17;;
26042;SDS011;13818;52.156;5.382;2023-06-14T01:25:22;14.27;;;2.05;;
26042;SDS011;13818;52.156;5.382;2023-06-14T01:27:51;3.67;;;1.70;;
26042;SDS011;13818;52.156;5.382;2023-06-14T01:30:20;6.53;;;2.10;;
26042;SDS011;13818;52.156;5.382;2023-06-14T01:32:47;8.13;;;1.90;;
26042;SDS011;13818;52.156;5.382;2023-06-14T01:35:16;5.75;;;1.92;;
26042;SDS011;13818;52.156;5.382;2023-06-14T01:37:42;6.82;;;1.80;;
26042;SDS011;13818;52.156;5.382;2023-06-14T01:40:11;4.50;;;2.10;;
26042;SDS011;13818;52.156;5.382;2023-06-14T01:42:40;4.55;;;1.70;;
26042;SDS011;13818;52.156;5.382;2023-06-14T01:45:08;5.72;;;1.92;;
26042;SDS011;13818;52.156;5.382;2023-06-14T01:47:36;6.70;;;2.25;;
26042;SDS011;13818;52.156;5.382;2023-06-14T01:50:02;4.25;;;2.00;;
26042;SDS011;13818;52.156;5.382;2023-06-14T01:52:30;6.75;;;2.05;;
26042;SDS011;13818;52.156;5.382;2023-06-14T01:54:56;5.18;;;2.25;;
26042;SDS011;13818;52.156;5.382;2023-06-14T01:57:25;7.57;;;2.00;;
26042;SDS011;13818;52.156;5.382;2023-06-14T01:59:52;5.50;;;2.15;;
26042;SDS011;13818;52.156;5.382;2023-06-14T02:02:19;13.43;;;2.38;;
26042;SDS011;13818;52.156;5.382;2023-06-14T02:04:45;3.47;;;1.80;;
26042;SDS011;13818;52.156;5.382;2023-06-14T02:07:12;5.65;;;1.98;;
26042;SDS011;13818;52.156;5.382;2023-06-14T02:09:39;7.63;;;2.10;;
26042;SDS011;13818;52.156;5.382;2023-06-14T02:12:06;9.27;;;2.00;;
26042;SDS011;13818;52.156;5.382;2023-06-14T02:14:34;5.10;;;2.05;;
26042;SDS011;13818;52.156;5.382;2023-06-14T02:17:01;7.63;;;1.98;;
26042;SDS011;13818;52.156;5.382;2023-06-14T02:19:27;7.47;;;2.05;;
26042;SDS011;13818;52.156;5.382;2023-06-14T02:21:53;5.22;;;2.08;;
26042;SDS011;13818;52.156;5.382;2023-06-14T02:24:20;3.35;;;1.90;;
26042;SDS011;13818;52.156;5.382;2023-06-14T02:26:48;4.22;;;1.92;;
26042;SDS011;13818;52.156;5.382;2023-06-14T02:29:15;4.75;;;2.42;;
26042;SDS011;13818;52.156;5.382;2023-06-14T02:31:43;5.57;;;1.80;;
26042;SDS011;13818;52.156;5.382;2023-06-14T02:34:11;5.20;;;1.95;;
26042;SDS011;13818;52.156;5.382;2023-06-14T02:36:38;3.72;;;1.80;;
26042;SDS011;13818;52.156;5.382;2023-06-14T02:39:06;4.38;;;1.75;;
26042;SDS011;13818;52.156;5.382;2023-06-14T02:41:34;4.53;;;1.52;;
26042;SDS011;13818;52.156;5.382;2023-06-14T02:44:01;3.70;;;1.77;;
26042;SDS011;13818;52.156;5.382;2023-06-14T02:46:27;8.20;;;2.13;;
26042;SDS011;13818;52.156;5.382;2023-06-14T02:48:55;7.15;;;2.10;;
26042;SDS011;13818;52.156;5.382;2023-06-14T02:51:21;3.88;;;1.88;;
26042;SDS011;13818;52.156;5.382;2023-06-14T02:53:48;4.90;;;1.33;;
26042;SDS011;13818;52.156;5.382;2023-06-14T02:56:15;7.35;;;1.67;;
26042;SDS011;13818;52.156;5.382;2023-06-14T02:58:42;4.50;;;1.80;;
26042;SDS011;13818;52.156;5.382;2023-06-14T03:01:09;5.35;;;2.00;;
26042;SDS011;13818;52.156;5.382;2023-06-14T03:03:39;7.45;;;1.73;;
26042;SDS011;13818;52.156;5.382;2023-06-14T03:06:07;5.20;;;1.52;;
26042;SDS011;13818;52.156;5.382;2023-06-14T03:08:34;4.65;;;1.40;;
26042;SDS011;13818;52.156;5.382;2023-06-14T03:11:04;3.70;;;1.50;;
26042;SDS011;13818;52.156;5.382;2023-06-14T03:13:31;6.05;;;1.63;;
26042;SDS011;13818;52.156;5.382;2023-06-14T03:15:58;7.72;;;2.47;;
26042;SDS011;13818;52.156;5.382;2023-06-14T03:18:27;3.78;;;1.27;;
26042;SDS011;13818;52.156;5.382;2023-06-14T03:20:54;8.27;;;1.85;;
26042;SDS011;13818;52.156;5.382;2023-06-14T03:23:23;5.75;;;1.83;;
26042;SDS011;13818;52.156;5.382;2023-06-14T03:25:50;5.27;;;1.77;;
26042;SDS011;13818;52.156;5.382;2023-06-14T03:28:16;2.95;;;1.73;;
26042;SDS011;13818;52.156;5.382;2023-06-14T03:30:43;5.35;;;1.67;;
26042;SDS011;13818;52.156;5.382;2023-06-14T03:33:10;4.25;;;1.52;;
26042;SDS011;13818;52.156;5.382;2023-06-14T03:35:37;5.38;;;1.55;;
26042;SDS011;13818;52.156;5.382;2023-06-14T03:38:03;4.25;;;1.70;;
26042;SDS011;13818;52.156;5.382;2023-06-14T03:40:31;5.15;;;1.50;;
26042;SDS011;13818;52.156;5.382;2023-06-14T03:42:58;5.55;;;2.00;;
26042;SDS011;13818;52.156;5.382;2023-06-14T03:45:25;6.03;;;1.80;;
26042;SDS011;13818;52.156;5.382;2023-06-14T03:47:51;4.47;;;1.77;;
26042;SDS011;13818;52.156;5.382;2023-06-14T03:50:18;2.70;;;1.55;;
26042;SDS011;13818;52.156;5.382;2023-06-14T03:52:44;9.23;;;1.90;;
26042;SDS011;13818;52.156;5.382;2023-06-14T03:55:11;4.80;;;2.00;;
26042;SDS011;13818;52.156;5.382;2023-06-14T03:57:40;4.47;;;1.65;;
26042;SDS011;13818;52.156;5.382;2023-06-14T04:00:07;4.70;;;1.80;;
26042;SDS011;13818;52.156;5.382;2023-06-14T04:02:35;6.33;;;1.73;;
26042;SDS011;13818;52.156;5.382;2023-06-14T04:05:02;4.40;;;1.67;;
26042;SDS011;13818;52.156;5.382;2023-06-14T04:07:29;5.20;;;1.75;;
26042;SDS011;13818;52.156;5.382;2023-06-14T04:09:55;6.55;;;1.73;;
26042;SDS011;13818;52.156;5.382;2023-06-14T04:12:22;8.00;;;2.65;;
26042;SDS011;13818;52.156;5.382;2023-06-14T04:14:49;4.45;;;1.90;;
26042;SDS011;13818;52.156;5.382;2023-06-14T04:17:16;3.63;;;1.60;;
26042;SDS011;13818;52.156;5.382;2023-06-14T04:19:42;6.72;;;1.60;;
26042;SDS011;13818;52.156;5.382;2023-06-14T04:22:09;6.93;;;1.90;;
26042;SDS011;13818;52.156;5.382;2023-06-14T04:24:36;7.13;;;2.45;;
26042;SDS011;13818;52.156;5.382;2023-06-14T04:27:02;4.45;;;2.03;;
26042;SDS011;13818;52.156;5.382;2023-06-14T04:29:29;4.57;;;1.92;;
26042;SDS011;13818;52.156;5.382;2023-06-14T04:31:57;8.30;;;1.85;;
26042;SDS011;13818;52.156;5.382;2023-06-14T04:34:26;3.53;;;1.83;;
26042;SDS011;13818;52.156;5.382;2023-06-14T04:39:21;5.20;;;2.20;;
26042;SDS011;13818;52.156;5.382;2023-06-14T04:41:48;3.65;;;1.70;;
26042;SDS011;13818;52.156;5.382;2023-06-14T04:44:18;3.03;;;1.60;;
26042;SDS011;13818;52.156;5.382;2023-06-14T04:46:45;7.55;;;1.88;;
26042;SDS011;13818;52.156;5.382;2023-06-14T04:49:14;8.50;;;2.55;;
26042;SDS011;13818;52.156;5.382;2023-06-14T04:51:40;4.28;;;1.77;;
26042;SDS011;13818;52.156;5.382;2023-06-14T04:54:07;4.13;;;1.67;;
26042;SDS011;13818;52.156;5.382;2023-06-14T04:56:35;2.97;;;1.73;;
26042;SDS011;13818;52.156;5.382;2023-06-14T04:59:02;9.82;;;1.95;;
26042;SDS011;13818;52.156;5.382;2023-06-14T05:01:29;4.65;;;2.17;;
26042;SDS011;13818;52.156;5.382;2023-06-14T05:03:56;4.70;;;1.80;;
26042;SDS011;13818;52.156;5.382;2023-06-14T05:06:24;5.32;;;1.92;;
26042;SDS011;13818;52.156;5.382;2023-06-14T05:08:52;6.53;;;2.38;;
26042;SDS011;13818;52.156;5.382;2023-06-14T05:11:19;9.02;;;2.00;;
26042;SDS011;13818;52.156;5.382;2023-06-14T05:13:45;4.32;;;1.90;;
26042;SDS011;13818;52.156;5.382;2023-06-14T05:16:12;5.88;;;2.00;;
26042;SDS011;13818;52.156;5.382;2023-06-14T05:18:40;5.28;;;1.88;;
26042;SDS011;13818;52.156;5.382;2023-06-14T05:21:07;8.98;;;2.13;;
26042;SDS011;13818;52.156;5.382;2023-06-14T05:23:35;4.72;;;1.70;;
26042;SDS011;13818;52.156;5.382;2023-06-14T05:26:02;6.93;;;2.28;;
26042;SDS011;13818;52.156;5.382;2023-06-14T05:28:29;4.78;;;1.63;;
26042;SDS011;13818;52.156;5.382;2023-06-14T05:30:56;5.80;;;1.67;;
26042;SDS011;13818;52.156;5.382;2023-06-14T05:33:23;3.35;;;1.80;;
26042;SDS011;13818;52.156;5.382;2023-06-14T05:35:49;5.22;;;2.17;;
26042;SDS011;13818;52.156;5.382;2023-06-14T05:38:16;3.50;;;1.83;;
26042;SDS011;13818;52.156;5.382;2023-06-14T05:40:44;6.10;;;2.05;;
26042;SDS011;13818;52.156;5.382;2023-06-14T05:43:10;4.78;;;1.95;;
26042;SDS011;13818;52.156;5.382;2023-06-14T05:45:37;3.65;;;1.92;;
26042;SDS011;13818;52.156;5.382;2023-06-14T05:48:04;3.90;;;1.80;;
26042;SDS011;13818;52.156;5.382;2023-06-14T05:50:30;4.30;;;1.58;;
26042;SDS011;13818;52.156;5.382;2023-06-14T05:52:57;5.60;;;1.90;;
26042;SDS011;13818;52.156;5.382;2023-06-14T05:55:23;4.97;;;1.70;;
26042;SDS011;13818;52.156;5.382;2023-06-14T05:57:51;4.50;;;2.05;;
26042;SDS011;13818;52.156;5.382;2023-06-14T06:00:18;7.07;;;2.33;;
26042;SDS011;13818;52.156;5.382;2023-06-14T06:02:45;6.72;;;2.05;;
26042;SDS011;13818;52.156;5.382;2023-06-14T06:05:12;8.90;;;1.90;;
26042;SDS011;13818;52.156;5.382;2023-06-14T06:07:40;6.95;;;2.10;;
26042;SDS011;13818;52.156;5.382;2023-06-14T06:10:09;5.05;;;2.60;;
26042;SDS011;13818;52.156;5.382;2023-06-14T06:12:36;4.28;;;1.73;;
26042;SDS011;13818;52.156;5.382;2023-06-14T06:15:04;7.13;;;2.63;;
26042;SDS011;13818;52.156;5.382;2023-06-14T06:17:32;6.72;;;2.22;;
26042;SDS011;13818;52.156;5.382;2023-06-14T06:19:59;6.47;;;2.10;;
26042;SDS011;13818;52.156;5.382;2023-06-14T06:22:25;6.90;;;2.25;;
26042;SDS011;13818;52.156;5.382;2023-06-14T06:24:52;8.18;;;2.15;;
26042;SDS011;13818;52.156;5.382;2023-06-14T06:27:19;3.65;;;2.05;;
26042;SDS011;13818;52.156;5.382;2023-06-14T06:29:45;6.53;;;1.75;;
26042;SDS011;13818;52.156;5.382;2023-06-14T06:32:14;4.63;;;2.00;;
26042;SDS011;13818;52.156;5.382;2023-06-14T06:34:41;5.20;;;2.50;;
26042;SDS011;13818;52.156;5.382;2023-06-14T06:37:07;5.38;;;2.10;;
26042;SDS011;13818;52.156;5.382;2023-06-14T06:39:34;7.65;;;2.28;;
26042;SDS011;13818;52.156;5.382;2023-06-14T06:42:01;4.80;;;1.90;;
26042;SDS011;13818;52.156;5.382;2023-06-14T06:44:27;6.65;;;2.10;;
26042;SDS011;13818;52.156;5.382;2023-06-14T06:46:53;3.47;;;1.58;;
26042;SDS011;13818;52.156;5.382;2023-06-14T06:49:21;11.63;;;2.47;;
26042;SDS011;13818;52.156;5.382;2023-06-14T06:51:59;7.82;;;2.00;;
26042;SDS011;13818;52.156;5.382;2023-06-14T06:54:27;8.32;;;1.77;;
26042;SDS011;13818;52.156;5.382;2023-06-14T06:56:53;7.05;;;2.10;;
26042;SDS011;13818;52.156;5.382;2023-06-14T06:59:20;5.72;;;2.45;;
26042;SDS011;13818;52.156;5.382;2023-06-14T07:01:46;7.03;;;2.20;;
26042;SDS011;13818;52.156;5.382;2023-06-14T07:04:13;4.28;;;1.75;;
26042;SDS011;13818;52.156;5.382;2023-06-14T07:06:43;3.85;;;1.88;;
26042;SDS011;13818;52.156;5.382;2023-06-14T07:09:10;7.13;;;2.33;;
26042;SDS011;13818;52.156;5.382;2023-06-14T07:11:37;4.60;;;2.00;;
26042;SDS011;13818;52.156;5.382;2023-06-14T07:14:05;6.10;;;2.05;;
26042;SDS011;13818;52.156;5.382;2023-06-14T07:16:32;6.57;;;1.98;;
26042;SDS011;13818;52.156;5.382;2023-06-14T07:18:58;3.85;;;1.75;;
26042;SDS011;13818;52.156;5.382;2023-06-14T07:21:26;6.68;;;2.10;;
26042;SDS011;13818;52.156;5.382;2023-06-14T07:23:53;4.65;;;2.20;;
26042;SDS011;13818;52.156;5.382;2023-06-14T07:26:20;5.20;;;2.10;;
26042;SDS011;13818;52.156;5.382;2023-06-14T07:28:47;2.10;;;1.40;;
26042;SDS011;13818;52.156;5.382;2023-06-14T07:31:16;4.30;;;1.90;;
26042;SDS011;13818;52.156;5.382;2023-06-14T07:33:44;3.53;;;1.67;;
26042;SDS011;13818;52.156;5.382;2023-06-14T07:36:11;3.70;;;1.50;;
26042;SDS011;13818;52.156;5.382;2023-06-14T07:38:37;3.30;;;1.60;;
26042;SDS011;13818;52.156;5.382;2023-06-14T07:41:06;3.78;;;1.50;;
26042;SDS011;13818;52.156;5.382;2023-06-14T07:43:33;7.30;;;1.80;;
26042;SDS011;13818;52.156;5.382;2023-06-14T07:46:00;3.03;;;1.60;;
26042;SDS011;13818;52.156;5.382;2023-06-14T07:48:27;5.78;;;1.63;;
26042;SDS011;13818;52.156;5.382;2023-06-14T07:50:54;5.63;;;1.50;;
26042;SDS011;13818;52.156;5.382;2023-06-14T07:53:20;3.50;;;1.25;;
26042;SDS011;13818;52.156;5.382;2023-06-14T07:55:47;3.90;;;1.80;;
26042;SDS011;13818;52.156;5.382;2023-06-14T07:58:15;5.00;;;1.33;;
26042;SDS011;13818;52.156;5.382;2023-06-14T08:00:41;6.60;;;1.60;;
26042;SDS011;13818;52.156;5.382;2023-06-14T08:03:08;2.53;;;1.52;;
26042;SDS011;13818;52.156;5.382;2023-06-14T08:05:34;4.82;;;1.33;;
26042;SDS011;13818;52.156;5.382;2023-06-14T08:08:01;8.80;;;1.70;;
26042;SDS011;13818;52.156;5.382;2023-06-14T08:10:28;4.07;;;1.63;;
26042;SDS011;13818;52.156;5.382;2023-06-14T08:12:54;6.50;;;1.42;;
26042;SDS011;13818;52.156;5.382;2023-06-14T08:15:22;2.58;;;1.15;;
26042;SDS011;13818;52.156;5.382;2023-06-14T08:17:48;7.13;;;1.45;;
26042;SDS011;13818;52.156;5.382;2023-06-14T08:20:15;4.40;;;1.58;;
26042;SDS011;13818;52.156;5.382;2023-06-14T08:22:42;2.28;;;1.27;;
26042;SDS011;13818;52.156;5.382;2023-06-14T08:25:08;4.72;;;1.52;;
26042;SDS011;13818;52.156;5.382;2023-06-14T08:27:36;3.08;;;1.30;;
26042;SDS011;13818;52.156;5.382;2023-06-14T08:30:02;4.00;;;1.10;;
26042;SDS011;13818;52.156;5.382;2023-06-14T08:32:31;2.28;;;1.45;;
26042;SDS011;13818;52.156;5.382;2023-06-14T08:34:57;2.42;;;1.20;;
26042;SDS011;13818;52.156;5.382;2023-06-14T08:37:24;3.38;;;1.20;;
26042;SDS011;13818;52.156;5.382;2023-06-14T08:39:51;2.45;;;1.20;;
26042;SDS011;13818;52.156;5.382;2023-06-14T08:42:18;3.65;;;1.70;;
26042;SDS011;13818;52.156;5.382;2023-06-14T08:47:13;4.88;;;1.30;;
26042;SDS011;13818;52.156;5.382;2023-06-14T08:49:45;21.45;;;2.72;;
26042;SDS011;13818;52.156;5.382;2023-06-14T08:52:13;3.08;;;1.42;;
26042;SDS011;13818;52.156;5.382;2023-06-14T08:54:45;2.22;;;1.25;;
26042;SDS011;13818;52.156;5.382;2023-06-14T08:57:13;5.07;;;1.30;;
26042;SDS011;13818;52.156;5.382;2023-06-14T08:59:45;5.70;;;1.20;;
26042;SDS011;13818;52.156;5.382;2023-06-14T09:02:14;2.03;;;1.00;;
26042;SDS011;13818;52.156;5.382;2023-06-14T09:04:46;1.38;;;0.82;;
26042;SDS011;13818;52.156;5.382;2023-06-14T09:07:12;1.90;;;1.23;;
26042;SDS011;13818;52.156;5.382;2023-06-14T09:09:39;4.65;;;1.10;;
26042;SDS011;13818;52.156;5.382;2023-06-14T09:12:07;2.55;;;0.98;;
26042;SDS011;13818;52.156;5.382;2023-06-14T09:17:04;3.50;;;1.20;;
26042;SDS011;13818;52.156;5.382;2023-06-14T09:19:31;3.47;;;1.13;;
26042;SDS011;13818;52.156;5.382;2023-06-14T09:21:59;3.58;;;1.20;;
26042;SDS011;13818;52.156;5.382;2023-06-14T09:24:25;5.57;;;1.10;;
26042;SDS011;13818;52.156;5.382;2023-06-14T09:26:52;4.10;;;1.30;;
26042;SDS011;13818;52.156;5.382;2023-06-14T09:29:19;1.75;;;1.00;;
26042;SDS011;13818;52.156;5.382;2023-06-14T09:31:46;2.22;;;1.25;;
26042;SDS011;13818;52.156;5.382;2023-06-14T09:34:13;3.28;;;1.20;;
26042;SDS011;13818;52.156;5.382;2023-06-14T09:36:43;3.33;;;1.38;;
26042;SDS011;13818;52.156;5.382;2023-06-14T09:39:11;2.28;;;1.20;;
26042;SDS011;13818;52.156;5.382;2023-06-14T09:41:43;3.83;;;1.08;;
26042;SDS011;13818;52.156;5.382;2023-06-14T09:44:10;2.38;;;0.95;;
26042;SDS011;13818;52.156;5.382;2023-06-14T09:46:37;2.05;;;0.85;;
26042;SDS011;13818;52.156;5.382;2023-06-14T09:49:04;1.70;;;1.02;;
26042;SDS011;13818;52.156;5.382;2023-06-14T09:51:32;2.72;;;1.02;;
26042;SDS011;13818;52.156;5.382;2023-06-14T09:53:59;4.43;;;1.10;;
26042;SDS011;13818;52.156;5.382;2023-06-14T09:56:28;3.17;;;1.10;;
26042;SDS011;13818;52.156;5.382;2023-06-14T10:01:22;1.70;;;0.98;;
26042;SDS011;13818;52.156;5.382;2023-06-14T10:03:53;2.72;;;1.00;;
26042;SDS011;13818;52.156;5.382;2023-06-14T10:06:22;3.53;;;1.00;;
26042;SDS011;13818;52.156;5.382;2023-06-14T10:08:50;8.55;;;1.60;;
26042;SDS011;13818;52.156;5.382;2023-06-14T10:11:21;3.40;;;1.10;;
26042;SDS011;13818;52.156;5.382;2023-06-14T10:13:48;5.20;;;1.40;;
26042;SDS011;13818;52.156;5.382;2023-06-14T10:16:17;3.17;;;0.90;;
26042;SDS011;13818;52.156;5.382;2023-06-14T10:18:49;2.72;;;0.88;;
26042;SDS011;13818;52.156;5.382;2023-06-14T10:21:21;9.90;;;1.60;;
26042;SDS011;13818;52.156;5.382;2023-06-14T10:23:52;1.80;;;0.95;;
26042;SDS011;13818;52.156;5.382;2023-06-14T10:26:19;2.53;;;1.10;;
26042;SDS011;13818;52.156;5.382;2023-06-14T10:28:58;3.88;;;1.40;;
26042;SDS011;13818;52.156;5.382;2023-06-14T10:34:21;2.78;;;0.95;;
26042;SDS011;13818;52.156;5.382;2023-06-14T10:36:59;3.38;;;1.10;;
26042;SDS011;13818;52.156;5.382;2023-06-14T10:39:28;4.30;;;1.02;;
26042;SDS011;13818;52.156;5.382;2023-06-14T10:41:55;4.55;;;1.30;;
26042;SDS011;13818;52.156;5.382;2023-06-14T10:44:43;2.85;;;1.30;;
26042;SDS011;13818;52.156;5.382;2023-06-14T10:47:20;1.90;;;1.15;;
26042;SDS011;13818;52.156;5.382;2023-06-14T10:49:51;3.05;;;1.00;;
26042;SDS011;13818;52.156;5.382;2023-06-14T10:52:24;4.55;;;1.05;;
26042;SDS011;13818;52.156;5.382;2023-06-14T10:54:58;4.30;;;1.13;;
26042;SDS011;13818;52.156;5.382;2023-06-14T10:57:34;2.17;;;1.10;;
26042;SDS011;13818;52.156;5.382;2023-06-14T11:00:03;1.80;;;1.08;;
26042;SDS011;13818;52.156;5.382;2023-06-14T11:02:46;2.25;;;0.85;;
26042;SDS011;13818;52.156;5.382;2023-06-14T11:05:40;2.90;;;0.88;;
26042;SDS011;13818;52.156;5.382;2023-06-14T11:10:57;2.00;;;1.10;;
26042;SDS011;13818;52.156;5.382;2023-06-14T11:13:25;6.72;;;1.33;;
26042;SDS011;13818;52.156;5.382;2023-06-14T11:15:53;1.83;;;1.05;;
26042;SDS011;13818;52.156;5.382;2023-06-14T11:18:22;4.13;;;1.02;;
26042;SDS011;13818;52.156;5.382;2023-06-14T11:20:50;2.80;;;1.00;;
26042;SDS011;13818;52.156;5.382;2023-06-14T11:23:17;4.10;;;1.35;;
26042;SDS011;13818;52.156;5.382;2023-06-14T11:25:43;2.60;;;1.08;;
26042;SDS011;13818;52.156;5.382;2023-06-14T11:28:09;2.78;;;1.25;;
26042;SDS011;13818;52.156;5.382;2023-06-14T11:30:36;3.58;;;1.30;;
26042;SDS011;13818;52.156;5.382;2023-06-14T11:33:04;1.80;;;1.10;;
26042;SDS011;13818;52.156;5.382;2023-06-14T11:35:31;3.20;;;0.80;;
26042;SDS011;13818;52.156;5.382;2023-06-14T11:37:58;3.05;;;0.93;;
26042;SDS011;13818;52.156;5.382;2023-06-14T11:40:25;2.13;;;1.20;;
26042;SDS011;13818;52.156;5.382;2023-06-14T11:42:57;1.63;;;0.82;;
26042;SDS011;13818;52.156;5.382;2023-06-14T11:45:25;5.82;;;1.40;;
26042;SDS011;13818;52.156;5.382;2023-06-14T11:47:53;1.73;;;1.08;;
26042;SDS011;13818;52.156;5.382;2023-06-14T11:50:22;2.15;;;1.10;;
26042;SDS011;13818;52.156;5.382;2023-06-14T11:52:52;1.83;;;1.10;;
26042;SDS011;13818;52.156;5.382;2023-06-14T11:55:20;4.05;;;1.00;;
26042;SDS011;13818;52.156;5.382;2023-06-14T11:57:46;2.53;;;1.10;;
26042;SDS011;13818;52.156;5.382;2023-06-14T12:00:14;4.32;;;1.33;;
26042;SDS011;13818;52.156;5.382;2023-06-14T12:02:41;4.05;;;1.13;;
26042;SDS011;13818;52.156;5.382;2023-06-14T12:05:08;1.85;;;0.98;;
26042;SDS011;13818;52.156;5.382;2023-06-14T12:07:37;1.77;;;1.08;;
26042;SDS011;13818;52.156;5.382;2023-06-14T12:10:05;3.40;;;1.30;;
26042;SDS011;13818;52.156;5.382;2023-06-14T12:12:35;1.58;;;0.90;;
26042;SDS011;13818;52.156;5.382;2023-06-14T12:15:02;1.20;;;0.80;;
26042;SDS011;13818;52.156;5.382;2023-06-14T12:17:31;3.42;;;0.82;;
26042;SDS011;13818;52.156;5.382;2023-06-14T12:20:04;2.35;;;1.20;;
26042;SDS011;13818;52.156;5.382;2023-06-14T12:22:33;2.40;;;1.00;;
26042;SDS011;13818;52.156;5.382;2023-06-14T12:25:01;2.05;;;1.10;;
26042;SDS011;13818;52.156;5.382;2023-06-14T12:27:28;5.40;;;1.45;;
26042;SDS011;13818;52.156;5.382;2023-06-14T12:29:58;3.40;;;1.40;;
26042;SDS011;13818;52.156;5.382;2023-06-14T12:32:25;6.28;;;1.10;;
26042;SDS011;13818;52.156;5.382;2023-06-14T12:34:52;2.42;;;0.80;;
26042;SDS011;13818;52.156;5.382;2023-06-14T12:37:18;2.90;;;1.30;;
26042;SDS011;13818;52.156;5.382;2023-06-14T12:39:45;3.88;;;1.20;;
26042;SDS011;13818;52.156;5.382;2023-06-14T12:42:12;2.22;;;1.30;;
26042;SDS011;13818;52.156;5.382;2023-06-14T12:44:39;3.78;;;1.45;;
26042;SDS011;13818;52.156;5.382;2023-06-14T12:47:06;2.55;;;1.20;;
26042;SDS011;13818;52.156;5.382;2023-06-14T12:49:33;2.88;;;1.30;;
26042;SDS011;13818;52.156;5.382;2023-06-14T12:51:59;2.00;;;1.42;;
26042;SDS011;13818;52.156;5.382;2023-06-14T12:54:26;7.47;;;1.52;;
26042;SDS011;13818;52.156;5.382;2023-06-14T12:56:52;4.70;;;1.20;;
26042;SDS011;13818;52.156;5.382;2023-06-14T12:59:21;1.35;;;1.00;;
26042;SDS011;13818;52.156;5.382;2023-06-14T13:01:47;3.78;;;0.90;;
26042;SDS011;13818;52.156;5.382;2023-06-14T13:04:15;2.90;;;1.00;;
26042;SDS011;13818;52.156;5.382;2023-06-14T13:06:42;4.65;;;1.10;;
26042;SDS011;13818;52.156;5.382;2023-06-14T13:09:08;3.70;;;1.20;;
26042;SDS011;13818;52.156;5.382;2023-06-14T13:11:35;4.82;;;1.40;;
26042;SDS011;13818;52.156;5.382;2023-06-14T13:14:02;3.60;;;0.98;;
26042;SDS011;13818;52.156;5.382;2023-06-14T13:16:30;3.28;;;1.08;;
26042;SDS011;13818;52.156;5.382;2023-06-14T13:18:56;2.95;;;1.23;;
26042;SDS011;13818;52.156;5.382;2023-06-14T13:21:23;2.92;;;1.08;;
26042;SDS011;13818;52.156;5.382;2023-06-14T13:23:49;4.28;;;1.10;;
26042;SDS011;13818;52.156;5.382;2023-06-14T13:26:16;7.68;;;1.10;;
26042;SDS011;13818;52.156;5.382;2023-06-14T13:28:43;3.15;;;1.00;;
26042;SDS011;13818;52.156;5.382;2023-06-14T13:31:10;5.13;;;1.05;;
26042;SDS011;13818;52.156;5.382;2023-06-14T13:33:37;6.57;;;1.45;;
26042;SDS011;13818;52.156;5.382;2023-06-14T13:36:04;2.40;;;1.05;;
26042;SDS011;13818;52.156;5.382;2023-06-14T13:38:30;1.73;;;1.10;;
26042;SDS011;13818;52.156;5.382;2023-06-14T13:40:57;4.20;;;1.52;;
26042;SDS011;13818;52.156;5.382;2023-06-14T13:43:23;2.35;;;1.10;;
26042;SDS011;13818;52.156;5.382;2023-06-14T13:45:50;2.60;;;1.00;;
26042;SDS011;13818;52.156;5.382;2023-06-14T13:48:16;13.95;;;2.13;;
26042;SDS011;13818;52.156;5.382;2023-06-14T13:50:44;3.13;;;1.00;;
26042;SDS011;13818;52.156;5.382;2023-06-14T13:53:11;2.00;;;1.02;;
26042;SDS011;13818;52.156;5.382;2023-06-14T13:55:39;3.15;;;1.20;;
26042;SDS011;13818;52.156;5.382;2023-06-14T13:58:05;3.25;;;1.20;;
26042;SDS011;13818;52.156;5.382;2023-06-14T14:00:32;4.28;;;1.60;;
26042;SDS011;13818;52.156;5.382;2023-06-14T14:02:58;2.28;;;1.10;;
26042;SDS011;13818;52.156;5.382;2023-06-14T14:05:25;3.72;;;1.77;;
26042;SDS011;13818;52.156;5.382;2023-06-14T14:07:56;1.50;;;0.90;;
26042;SDS011;13818;52.156;5.382;2023-06-14T14:10:23;1.67;;;1.00;;
26042;SDS011;13818;52.156;5.382;2023-06-14T14:12:50;2.22;;;1.10;;
26042;SDS011;13818;52.156;5.382;2023-06-14T14:15:17;4.57;;;1.10;;
26042;SDS011;13818;52.156;5.382;2023-06-14T14:17:44;2.05;;;1.25;;
26042;SDS011;13818;52.156;5.382;2023-06-14T14:20:12;1.85;;;1.20;;
26042;SDS011;13818;52.156;5.382;2023-06-14T14:22:40;3.65;;;1.27;;
26042;SDS011;13818;52.156;5.382;2023-06-14T14:25:08;1.65;;;0.80;;
26042;SDS011;13818;52.156;5.382;2023-06-14T14:27:35;6.07;;;1.02;;
26042;SDS011;13818;52.156;5.382;2023-06-14T14:30:02;2.25;;;1.23;;
26042;SDS011;13818;52.156;5.382;2023-06-14T14:32:29;2.03;;;0.98;;
26042;SDS011;13818;52.156;5.382;2023-06-14T14:34:56;4.63;;;1.38;;
26042;SDS011;13818;52.156;5.382;2023-06-14T14:37:23;5.05;;;1.20;;
26042;SDS011;13818;52.156;5.382;2023-06-14T14:39:49;3.05;;;1.08;;
26042;SDS011;13818;52.156;5.382;2023-06-14T14:42:17;1.70;;;0.90;;
26042;SDS011;13818;52.156;5.382;2023-06-14T14:44:44;1.55;;;0.85;;
26042;SDS011;13818;52.156;5.382;2023-06-14T14:47:11;2.72;;;1.05;;
26042;SDS011;13818;52.156;5.382;2023-06-14T14:49:37;1.42;;;0.88;;
26042;SDS011;13818;52.156;5.382;2023-06-14T14:52:04;3.50;;;0.90;;
26042;SDS011;13818;52.156;5.382;2023-06-14T14:54:31;2.03;;;1.00;;
26042;SDS011;13818;52.156;5.382;2023-06-14T14:56:58;2.30;;;1.30;;
26042;SDS011;13818;52.156;5.382;2023-06-14T14:59:26;3.17;;;1.00;;
26042;SDS011;13818;52.156;5.382;2023-06-14T15:01:52;2.23;;;1.27;;
26042;SDS011;13818;52.156;5.382;2023-06-14T15:04:19;2.72;;;0.88;;
26042;SDS011;13818;52.156;5.382;2023-06-14T15:06:46;3.30;;;1.00;;
26042;SDS011;13818;52.156;5.382;2023-06-14T15:09:12;2.80;;;0.80;;
26042;SDS011;13818;52.156;5.382;2023-06-14T15:11:39;3.90;;;1.10;;